Time;durP1;ratioP1;P1;durP2;ratioP2;P2;SDS_P1;SDS_P2;PMS_P1;PMS_P2;Temp;Humidity;BMP_temperature;BMP_pressure;BME280_temperature;BME280_humidity;BME280_pressure;Samples;Min_cycle;Max_cycle;Signal;HPM_P1;HPM_P2
2024/02/01 00:01:14;;;;;;;6.30;4.27;;;;;;;;;;5112677;28;20210;-82
2024/02/01 00:03:41;;;;;;;5.80;4.53;;;;;;;;;;5112539;28;20212;-82
2024/02/01 00:06:08;;;;;;;4.63;3.47;;;;;;;;;;5098648;28;20215;-82
2024/02/01 00:08:37;;;;;;;4.60;4.20;;;;;;;;;;5112831;28;20272;-82
2024/02/01 00:11:04;;;;;;;4.70;4.17;;;;;;;;;;5108044;28;20215;-82
2024/02/01 00:13:30;;;;;;;4.50;3.67;;;;;;;;;;5092013;28;20208;-82
2024/02/01 00:16:00;;;;;;;6.20;4.10;;;;;;;;;;5109165;28;20203;-81
2024/02/01 00:18:27;;;;;;;3.93;3.63;;;;;;;;;;5112327;28;20214;-82
2024/02/01 00:20:54;;;;;;;5.03;4.17;;;;;;;;;;5107680;28;20586;-82
2024/02/01 00:23:20;;;;;;;4.93;3.80;;;;;;;;;;5092080;28;20651;-82
2024/02/01 00:25:49;;;;;;;5.77;3.90;;;;;;;;;;5110750;28;20629;-82
2024/02/01 00:28:15;;;;;;;5.93;4.57;;;;;;;;;;5111933;28;20204;-82
2024/02/01 00:30:42;;;;;;;4.73;3.70;;;;;;;;;;5106518;28;20633;-82
2024/02/01 00:33:09;;;;;;;5.47;4.50;;;;;;;;;;5104141;28;20630;-82
2024/02/01 00:35:36;;;;;;;6.07;4.13;;;;;;;;;;5098635;28;20276;-82
2024/02/01 00:38:03;;;;;;;5.17;4.63;;;;;;;;;;5112141;28;20268;-82
2024/02/01 00:40:30;;;;;;;4.93;3.70;;;;;;;;;;5111804;28;20203;-82
2024/02/01 00:43:00;;;;;;;4.27;3.63;;;;;;;;;;5112026;28;20712;-81
2024/02/01 00:45:27;;;;;;;3.87;3.57;;;;;;;;;;5111600;28;20234;-82
2024/02/01 00:47:54;;;;;;;5.30;3.77;;;;;;;;;;5111871;28;20210;-82
2024/02/01 00:50:21;;;;;;;6.83;3.83;;;;;;;;;;5111447;28;20204;-82
2024/02/01 00:52:47;;;;;;;6.83;4.67;;;;;;;;;;5097935;28;20208;-82
2024/02/01 00:55:14;;;;;;;4.80;4.27;;;;;;;;;;5111752;28;20210;-81
2024/02/01 00:57:41;;;;;;;5.70;3.97;;;;;;;;;;5110513;28;20207;-82
2024/02/01 01:00:11;;;;;;;6.17;4.77;;;;;;;;;;5099318;28;20210;-82
2024/02/01 01:02:37;;;;;;;4.97;3.80;;;;;;;;;;5097827;28;20207;-82
2024/02/01 01:05:05;;;;;;;5.70;4.73;;;;;;;;;;5111900;28;20219;-82
2024/02/01 01:07:31;;;;;;;5.03;3.77;;;;;;;;;;5109713;28;20204;-82
2024/02/01 01:09:59;;;;;;;5.90;4.80;;;;;;;;;;5100092;28;20211;-81
2024/02/01 01:12:26;;;;;;;4.40;3.73;;;;;;;;;;5109119;28;20643;-82
2024/02/01 01:14:53;;;;;;;4.83;4.33;;;;;;;;;;5100353;28;20210;-82
2024/02/01 01:17:21;;;;;;;4.07;3.67;;;;;;;;;;5111212;28;20210;-82
2024/02/01 01:19:48;;;;;;;4.50;4.10;;;;;;;;;;5111235;28;20736;-82
2024/02/01 01:22:15;;;;;;;5.17;4.10;;;;;;;;;;5095538;28;20290;-82
2024/02/01 01:24:42;;;;;;;4.93;4.30;;;;;;;;;;5090983;28;20220;-83
2024/02/01 01:27:09;;;;;;;4.63;3.90;;;;;;;;;;5093749;28;20208;-82
2024/02/01 01:29:38;;;;;;;5.20;4.13;;;;;;;;;;5111414;28;20238;-83
2024/02/01 01:32:05;;;;;;;5.37;4.00;;;;;;;;;;5111005;28;20593;-82
2024/02/01 01:34:33;;;;;;;4.23;3.83;;;;;;;;;;5111193;28;20203;-82
2024/02/01 01:37:00;;;;;;;4.40;3.23;;;;;;;;;;5111383;28;20260;-82
2024/02/01 01:39:26;;;;;;;6.17;3.90;;;;;;;;;;5111299;28;20207;-82
2024/02/01 01:41:53;;;;;;;4.43;3.60;;;;;;;;;;5110465;28;20204;-82
2024/02/01 01:44:20;;;;;;;4.40;3.77;;;;;;;;;;5095168;28;20208;-83
2024/02/01 01:46:47;;;;;;;4.17;3.23;;;;;;;;;;5098785;28;20231;-82
2024/02/01 01:49:18;;;;;;;4.67;3.17;;;;;;;;;;5115701;28;20256;-82
2024/02/01 01:51:46;;;;;;;4.13;3.67;;;;;;;;;;5115388;28;20199;-82
2024/02/01 01:54:13;;;;;;;4.80;3.90;;;;;;;;;;5102397;28;20675;-82
2024/02/01 01:56:40;;;;;;;4.40;3.43;;;;;;;;;;5114114;28;20218;-82
2024/02/01 01:59:07;;;;;;;5.97;3.77;;;;;;;;;;5102708;28;20210;-83
2024/02/01 02:01:35;;;;;;;4.73;3.73;;;;;;;;;;5108582;28;20649;-82
2024/02/01 02:04:03;;;;;;;6.13;3.93;;;;;;;;;;5107360;28;20742;-82
2024/02/01 02:06:30;;;;;;;5.43;3.77;;;;;;;;;;5108681;28;20240;-82
2024/02/01 02:09:00;;;;;;;4.47;3.77;;;;;;;;;;5094725;28;20219;-82
2024/02/01 02:11:27;;;;;;;4.57;3.17;;;;;;;;;;5101532;28;20199;-82
2024/02/01 02:13:54;;;;;;;5.63;3.97;;;;;;;;;;5114149;28;20207;-82
2024/02/01 02:16:22;;;;;;;4.30;3.90;;;;;;;;;;5101972;28;20204;-82
2024/02/01 02:18:49;;;;;;;5.50;4.93;;;;;;;;;;5101017;28;20230;-83
2024/02/01 02:21:18;;;;;;;12.07;9.20;;;;;;;;;;5114799;28;20570;-82
2024/02/01 02:23:49;;;;;;;26.20;17.27;;;;;;;;;;5114311;28;20298;-82
2024/02/01 02:26:16;;;;;;;71.10;39.07;;;;;;;;;;5114678;28;20227;-82
2024/02/01 02:28:43;;;;;;;245.40;110.43;;;;;;;;;;5114658;28;20218;-83
2024/02/01 02:31:10;;;;;;;194.00;95.27;;;;;;;;;;5104911;28;20236;-83
2024/02/01 02:33:37;;;;;;;196.97;88.50;;;;;;;;;;5093896;28;20678;-82
2024/02/01 02:36:09;;;;;;;145.27;68.57;;;;;;;;;;5094500;28;20213;-82
2024/02/01 02:38:36;;;;;;;91.70;44.37;;;;;;;;;;5107423;28;20200;-82
2024/02/01 02:41:05;;;;;;;44.80;24.37;;;;;;;;;;5104620;28;20204;-82
2024/02/01 02:43:32;;;;;;;69.57;34.50;;;;;;;;;;5113947;28;20281;-80
2024/02/01 02:46:01;;;;;;;55.80;30.77;;;;;;;;;;5114614;28;20261;-82
2024/02/01 02:48:28;;;;;;;28.80;15.07;;;;;;;;;;5113785;28;20207;-82
2024/02/01 02:50:54;;;;;;;11.03;7.07;;;;;;;;;;5114379;28;20268;-82
2024/02/01 02:53:21;;;;;;;5.83;4.77;;;;;;;;;;5100259;28;20207;-82
2024/02/01 02:55:48;;;;;;;17.23;11.50;;;;;;;;;;5113692;28;20215;-81
2024/02/01 02:58:16;;;;;;;43.17;26.40;;;;;;;;;;5114381;28;20210;-82
2024/02/01 03:00:43;;;;;;;41.23;25.97;;;;;;;;;;5100256;28;20204;-82
2024/02/01 03:03:10;;;;;;;21.20;14.40;;;;;;;;;;5114075;28;20211;-84
2024/02/01 03:05:36;;;;;;;14.23;9.53;;;;;;;;;;5113595;28;20219;-82
2024/02/01 03:08:04;;;;;;;9.13;6.60;;;;;;;;;;5113911;28;20200;-83
2024/02/01 03:10:31;;;;;;;11.60;7.43;;;;;;;;;;5102468;28;20212;-84
2024/02/01 03:12:58;;;;;;;7.63;5.47;;;;;;;;;;5093924;28;20223;-83
2024/02/01 03:15:29;;;;;;;7.03;4.90;;;;;;;;;;5093302;28;20204;-83
2024/02/01 03:18:03;;;;;;;5.83;4.60;;;;;;;;;;5101080;28;20287;-83
2024/02/01 03:20:31;;;;;;;7.27;4.20;;;;;;;;;;5099738;28;20680;-82
2024/02/01 03:23:01;;;;;;;6.97;4.80;;;;;;;;;;5104863;28;20240;-83
2024/02/01 03:25:29;;;;;;;19.67;6.00;;;;;;;;;;5095154;28;20204;-83
2024/02/01 03:28:04;;;;;;;4.57;4.10;;;;;;;;;;5113357;28;20195;-84
2024/02/01 03:30:34;;;;;;;5.77;4.07;;;;;;;;;;5112815;28;20243;-83
2024/02/01 03:33:02;;;;;;;4.53;4.13;;;;;;;;;;5113273;28;20208;-82
2024/02/01 03:35:31;;;;;;;9.57;7.53;;;;;;;;;;5110232;28;20235;-83
2024/02/01 03:38:01;;;;;;;7.10;6.13;;;;;;;;;;5102857;28;20215;-81
2024/02/01 03:40:28;;;;;;;18.67;11.37;;;;;;;;;;5108944;28;20264;-80
2024/02/01 03:42:55;;;;;;;35.13;17.00;;;;;;;;;;5102703;28;20210;-81
2024/02/01 03:45:21;;;;;;;65.27;29.37;;;;;;;;;;5110249;28;20196;-82
2024/02/01 03:47:50;;;;;;;41.47;17.90;;;;;;;;;;5112734;28;20215;-84
2024/02/01 03:50:17;;;;;;;27.10;11.73;;;;;;;;;;5095197;28;20208;-82
2024/02/01 03:52:45;;;;;;;66.93;30.23;;;;;;;;;;5092743;28;20204;-82
2024/02/01 03:55:17;;;;;;;148.87;71.63;;;;;;;;;;5110554;28;20286;-80
2024/02/01 03:57:45;;;;;;;52.30;25.33;;;;;;;;;;5100267;28;20239;-82
2024/02/01 04:00:25;;;;;;;20.73;10.53;;;;;;;;;;5111565;28;20211;-81
2024/02/01 04:02:56;;;;;;;7.07;5.07;;;;;;;;;;5112545;28;20286;-81
2024/02/01 04:05:23;;;;;;;4.77;4.00;;;;;;;;;;5111765;28;20746;-81
2024/02/01 04:07:49;;;;;;;5.70;4.30;;;;;;;;;;5097461;28;20204;-81
2024/02/01 04:10:16;;;;;;;6.00;4.50;;;;;;;;;;5091890;28;20208;-82
2024/02/01 04:12:43;;;;;;;6.10;4.50;;;;;;;;;;5107818;28;20204;-81
2024/02/01 04:15:11;;;;;;;5.23;4.23;;;;;;;;;;5113036;28;20200;-80
2024/02/01 04:17:37;;;;;;;6.13;4.40;;;;;;;;;;5111661;28;20631;-82
2024/02/01 04:20:08;;;;;;;5.37;3.87;;;;;;;;;;5112057;28;20660;-81
2024/02/01 04:22:35;;;;;;;4.27;3.33;;;;;;;;;;5107285;28;20215;-80
2024/02/01 04:25:01;;;;;;;4.90;3.47;;;;;;;;;;5104224;28;20218;-80
2024/02/01 04:27:28;;;;;;;4.90;3.73;;;;;;;;;;5112505;28;20227;-80
2024/02/01 04:29:55;;;;;;;11.60;8.43;;;;;;;;;;5100056;28;20228;-81
2024/02/01 04:32:22;;;;;;;7.63;5.23;;;;;;;;;;5110770;28;20761;-81
2024/02/01 04:34:49;;;;;;;6.63;4.33;;;;;;;;;;5112536;28;20203;-82
2024/02/01 04:37:18;;;;;;;5.40;4.20;;;;;;;;;;5110954;28;20199;-83
2024/02/01 04:39:47;;;;;;;4.73;4.03;;;;;;;;;;5099177;28;20204;-83
2024/02/01 04:42:23;;;;;;;4.37;3.97;;;;;;;;;;5091556;28;20235;-82
2024/02/01 04:44:57;;;;;;;5.40;4.20;;;;;;;;;;5092397;28;20685;-83
2024/02/01 04:47:24;;;;;;;6.03;4.33;;;;;;;;;;5110683;28;20275;-81
2024/02/01 04:49:51;;;;;;;5.67;4.00;;;;;;;;;;5108743;28;20423;-81
2024/02/01 04:52:21;;;;;;;4.00;3.70;;;;;;;;;;5100929;28;20196;-81
2024/02/01 04:54:48;;;;;;;6.53;4.37;;;;;;;;;;5111243;28;20204;-82
2024/02/01 04:57:15;;;;;;;4.90;3.83;;;;;;;;;;5101426;28;20203;-81
2024/02/01 04:59:43;;;;;;;7.23;4.13;;;;;;;;;;5095471;28;20212;-81
2024/02/01 05:02:10;;;;;;;7.93;5.90;;;;;;;;;;5111566;28;20264;-80
2024/02/01 05:04:37;;;;;;;11.27;7.77;;;;;;;;;;5111016;28;20688;-84
2024/02/01 05:07:05;;;;;;;4.57;4.03;;;;;;;;;;5111533;28;20231;-84
2024/02/01 05:09:34;;;;;;;4.10;2.97;;;;;;;;;;5110760;28;20725;-84
2024/02/01 05:12:02;;;;;;;4.77;2.87;;;;;;;;;;5110135;28;20798;-82
2024/02/01 05:14:29;;;;;;;5.93;4.27;;;;;;;;;;5110742;28;20710;-82
2024/02/01 05:16:56;;;;;;;6.73;3.83;;;;;;;;;;5110646;28;20217;-82
2024/02/01 05:19:25;;;;;;;14.10;5.13;;;;;;;;;;5111045;28;20214;-81
2024/02/01 05:21:53;;;;;;;13.63;11.60;;;;;;;;;;5111157;28;20207;-81
2024/02/01 05:24:21;;;;;;;9.10;6.93;;;;;;;;;;5111461;28;20328;-82
2024/02/01 05:26:50;;;;;;;8.03;5.10;;;;;;;;;;5110518;28;20770;-83
2024/02/01 05:29:19;;;;;;;7.47;5.90;;;;;;;;;;5110830;28;20204;-82
2024/02/01 05:31:47;;;;;;;8.90;5.70;;;;;;;;;;5110480;28;20614;-82
2024/02/01 05:34:15;;;;;;;6.90;4.93;;;;;;;;;;5100743;28;20265;-81
2024/02/01 05:36:42;;;;;;;8.00;5.37;;;;;;;;;;5105562;28;20260;-83
2024/02/01 05:39:24;;;;;;;5.70;4.13;;;;;;;;;;5111460;28;20215;-82
2024/02/01 05:41:53;;;;;;;6.07;3.70;;;;;;;;;;5097923;28;20191;-82
2024/02/01 05:44:22;;;;;;;4.53;4.07;;;;;;;;;;5111524;28;20262;-82
2024/02/01 05:46:50;;;;;;;4.50;3.73;;;;;;;;;;5111153;28;20211;-82
2024/02/01 05:49:19;;;;;;;4.43;3.30;;;;;;;;;;5110970;28;20299;-82
2024/02/01 05:51:47;;;;;;;6.13;4.30;;;;;;;;;;5092831;28;20200;-82
2024/02/01 05:54:14;;;;;;;4.53;4.07;;;;;;;;;;5091012;28;20200;-82
2024/02/01 05:56:43;;;;;;;5.87;4.83;;;;;;;;;;5095803;28;20192;-82
2024/02/01 05:59:13;;;;;;;4.50;3.80;;;;;;;;;;5098522;28;20298;-82
2024/02/01 06:01:40;;;;;;;5.67;3.47;;;;;;;;;;5104196;28;20265;-82
2024/02/01 06:04:07;;;;;;;3.97;3.57;;;;;;;;;;5104000;28;20207;-82
2024/02/01 06:06:35;;;;;;;4.33;3.50;;;;;;;;;;5110707;28;20716;-82
2024/02/01 06:09:02;;;;;;;6.10;4.47;;;;;;;;;;5110060;28;20295;-82
2024/02/01 06:11:30;;;;;;;4.47;3.73;;;;;;;;;;5097813;28;20200;-82
2024/02/01 06:13:56;;;;;;;30.00;17.47;;;;;;;;;;5110548;28;20199;-82
2024/02/01 06:16:25;;;;;;;28.40;16.23;;;;;;;;;;5110878;28;20225;-82
2024/02/01 06:18:52;;;;;;;14.30;11.37;;;;;;;;;;5110681;28;20207;-82
2024/02/01 06:21:19;;;;;;;32.50;20.57;;;;;;;;;;5103050;28;20201;-82
2024/02/01 06:23:45;;;;;;;18.33;13.83;;;;;;;;;;5092164;28;20269;-82
2024/02/01 06:26:20;;;;;;;17.57;12.30;;;;;;;;;;5102642;28;20235;-82
2024/02/01 06:28:47;;;;;;;25.57;15.13;;;;;;;;;;5110327;28;20655;-82
2024/02/01 06:31:14;;;;;;;33.20;20.07;;;;;;;;;;5104467;28;20292;-82
2024/02/01 06:33:43;;;;;;;39.37;20.30;;;;;;;;;;5110111;28;20207;-82
2024/02/01 06:36:14;;;;;;;44.33;20.07;;;;;;;;;;5114645;28;20203;-81
2024/02/01 06:39:09;;;;;;;32.50;19.20;;;;;;;;;;5100202;28;20993;-82
2024/02/01 06:41:49;;;;;;;16.50;12.63;;;;;;;;;;5114054;28;20202;-82
2024/02/01 06:44:24;;;;;;;16.47;11.53;;;;;;;;;;5114918;28;20277;-82
2024/02/01 06:47:07;;;;;;;20.07;12.13;;;;;;;;;;5114130;28;20314;-83
2024/02/01 06:49:59;;;;;;;21.53;15.80;;;;;;;;;;5100799;28;20655;-82
2024/02/01 06:52:38;;;;;;;28.83;18.27;;;;;;;;;;5104307;28;20199;-82
2024/02/01 06:55:36;;;;;;;23.80;11.03;;;;;;;;;;5100552;28;20294;-82
2024/02/01 06:58:13;;;;;;;35.40;18.87;;;;;;;;;;5113667;28;20618;-82
2024/02/01 07:01:01;;;;;;;34.23;16.63;;;;;;;;;;5113937;28;20203;-81
2024/02/01 07:03:44;;;;;;;21.33;12.50;;;;;;;;;;5106390;28;20204;-82
2024/02/01 07:11:48;;;;;;;30.53;17.80;;;;;;;;;;5101564;28;20207;-82
2024/02/01 07:14:16;;;;;;;21.50;14.20;;;;;;;;;;5100308;28;20646;-82
2024/02/01 07:16:55;;;;;;;25.90;17.17;;;;;;;;;;5113703;28;20215;-82
2024/02/01 07:19:39;;;;;;;23.90;16.20;;;;;;;;;;5108129;28;20200;-82
2024/02/01 07:22:09;;;;;;;36.67;21.27;;;;;;;;;;5106186;28;20203;-82
2024/02/01 07:24:45;;;;;;;45.40;25.37;;;;;;;;;;5101887;28;20245;-81
2024/02/01 07:57:51;;;;;;;20.00;11.27;;;;;;;;;;5099825;28;20333;-82
2024/02/01 08:00:27;;;;;;;7.50;5.57;;;;;;;;;;5101396;28;20227;-83
2024/02/01 08:03:00;;;;;;;5.97;5.17;;;;;;;;;;5098765;28;20210;-86
2024/02/01 08:08:10;;;;;;;8.53;6.43;;;;;;;;;;5071072;28;20230;-82
2024/02/01 08:10:39;;;;;;;7.33;6.40;;;;;;;;;;5112534;28;20242;-82
2024/02/01 08:13:07;;;;;;;6.00;5.33;;;;;;;;;;5112429;28;20286;-82
2024/02/01 08:15:37;;;;;;;9.70;7.60;;;;;;;;;;5098824;28;20758;-82
2024/02/01 08:18:08;;;;;;;9.50;5.67;;;;;;;;;;5112760;28;20282;-82
2024/02/01 08:20:35;;;;;;;7.23;5.97;;;;;;;;;;5096069;28;20208;-82
2024/02/01 08:23:02;;;;;;;8.00;5.30;;;;;;;;;;5101406;28;20200;-82
2024/02/01 08:25:30;;;;;;;7.07;5.43;;;;;;;;;;5110014;28;20203;-82
2024/02/01 08:28:03;;;;;;;9.90;4.57;;;;;;;;;;5101144;28;20284;-82
2024/02/01 08:30:31;;;;;;;5.77;5.17;;;;;;;;;;5098081;28;20227;-82
2024/02/01 08:33:03;;;;;;;8.73;5.10;;;;;;;;;;5111906;28;20701;-83
2024/02/01 08:35:33;;;;;;;14.77;7.43;;;;;;;;;;5111965;28;20203;-82
2024/02/01 08:38:01;;;;;;;18.30;10.33;;;;;;;;;;5112169;28;20260;-82
2024/02/01 08:40:28;;;;;;;7.90;6.73;;;;;;;;;;5106212;28;20200;-82
2024/02/01 08:42:57;;;;;;;5.93;5.17;;;;;;;;;;5104367;28;20638;-81
2024/02/01 08:45:27;;;;;;;6.53;4.93;;;;;;;;;;5111390;28;20203;-81
2024/02/01 08:47:54;;;;;;;9.53;5.63;;;;;;;;;;5111698;28;20227;-82
2024/02/01 08:50:21;;;;;;;6.03;4.80;;;;;;;;;;5091558;28;20208;-82
2024/02/01 08:52:48;;;;;;;6.77;5.63;;;;;;;;;;5105246;28;20195;-82
2024/02/01 08:55:16;;;;;;;5.47;4.57;;;;;;;;;;5111476;28;20207;-82
2024/02/01 08:57:43;;;;;;;6.30;5.00;;;;;;;;;;5111196;28;20207;-82
2024/02/01 09:00:25;;;;;;;6.83;4.87;;;;;;;;;;5098904;28;20673;-82
2024/02/01 09:03:04;;;;;;;7.17;5.47;;;;;;;;;;5111921;28;20195;-80
2024/02/01 09:05:35;;;;;;;6.47;4.70;;;;;;;;;;5111380;28;20661;-81
2024/02/01 09:08:03;;;;;;;6.60;5.23;;;;;;;;;;5097497;28;20725;-81
2024/02/01 09:10:30;;;;;;;5.90;4.83;;;;;;;;;;5111701;28;20200;-82
2024/02/01 09:12:59;;;;;;;6.47;4.57;;;;;;;;;;5111426;28;20198;-81
2024/02/01 09:15:26;;;;;;;7.33;5.33;;;;;;;;;;5098350;28;20200;-81
2024/02/01 09:17:56;;;;;;;5.80;4.50;;;;;;;;;;5091720;28;20204;-81
2024/02/01 09:20:23;;;;;;;8.00;5.27;;;;;;;;;;5104949;28;20196;-82
2024/02/01 09:22:51;;;;;;;5.20;4.43;;;;;;;;;;5111069;28;20210;-81
2024/02/01 09:25:21;;;;;;;6.20;4.50;;;;;;;;;;5111697;28;20199;-82
2024/02/01 09:27:49;;;;;;;5.10;4.40;;;;;;;;;;5111228;28;20284;-81
2024/02/01 09:30:19;;;;;;;5.67;4.30;;;;;;;;;;5111015;28;20234;-80
2024/02/01 09:32:49;;;;;;;6.47;5.33;;;;;;;;;;5102537;28;20580;-80
2024/02/01 09:35:19;;;;;;;10.00;7.00;;;;;;;;;;5107351;28;20677;-81
2024/02/01 09:37:51;;;;;;;7.67;5.90;;;;;;;;;;5101407;28;20567;-82
2024/02/01 09:40:18;;;;;;;6.53;5.30;;;;;;;;;;5104834;28;20212;-80
2024/02/01 09:42:47;;;;;;;6.77;5.90;;;;;;;;;;5101766;28;20609;-81
2024/02/01 09:45:15;;;;;;;10.07;6.97;;;;;;;;;;5092784;28;20683;-81
2024/02/01 09:47:46;;;;;;;8.97;5.90;;;;;;;;;;5103194;28;20280;-81
2024/02/01 09:50:14;;;;;;;9.47;6.43;;;;;;;;;;5097645;28;20203;-82
2024/02/01 09:52:44;;;;;;;8.17;6.50;;;;;;;;;;5111032;28;20724;-81
2024/02/01 09:55:16;;;;;;;10.63;7.23;;;;;;;;;;5111153;28;20200;-81
2024/02/01 09:57:45;;;;;;;7.60;6.37;;;;;;;;;;5109675;28;20286;-82
2024/02/01 10:00:18;;;;;;;10.33;6.03;;;;;;;;;;5098774;28;20252;-81
2024/02/01 10:02:46;;;;;;;7.27;6.23;;;;;;;;;;5111703;28;20207;-81
2024/02/01 10:05:13;;;;;;;27.97;22.23;;;;;;;;;;5103731;28;20662;-81
2024/02/01 10:07:40;;;;;;;10.43;8.60;;;;;;;;;;5114434;28;20273;-81
2024/02/01 10:10:13;;;;;;;10.30;6.97;;;;;;;;;;5115140;28;20204;-81
2024/02/01 10:12:40;;;;;;;11.03;8.17;;;;;;;;;;5115137;28;20192;-80
2024/02/01 10:15:10;;;;;;;11.17;8.63;;;;;;;;;;5114612;28;20200;-82
2024/02/01 10:17:46;;;;;;;18.07;11.60;;;;;;;;;;5109822;28;20216;-81
2024/02/01 10:20:33;;;;;;;11.17;7.77;;;;;;;;;;5106898;28;20248;-81
2024/02/01 10:23:04;;;;;;;12.57;8.90;;;;;;;;;;5103041;28;20614;-82
2024/02/01 10:25:39;;;;;;;13.80;8.63;;;;;;;;;;5100742;28;20206;-82
2024/02/01 10:28:08;;;;;;;12.80;9.53;;;;;;;;;;5103870;28;20255;-81
2024/02/01 10:30:37;;;;;;;13.50;10.07;;;;;;;;;;5110771;28;20292;-81
2024/02/01 10:33:04;;;;;;;14.90;11.73;;;;;;;;;;5114398;28;20291;-81
2024/02/01 10:35:31;;;;;;;12.13;9.20;;;;;;;;;;5114229;28;20290;-81
2024/02/01 10:37:58;;;;;;;11.27;8.80;;;;;;;;;;5114461;28;20290;-81
2024/02/01 10:40:39;;;;;;;14.27;10.07;;;;;;;;;;5100411;28;20661;-81
2024/02/01 10:43:08;;;;;;;15.07;12.03;;;;;;;;;;5114318;28;20286;-81
2024/02/01 10:45:37;;;;;;;14.53;10.33;;;;;;;;;;5114257;28;20253;-81
2024/02/01 10:48:09;;;;;;;18.17;11.60;;;;;;;;;;5100256;28;20262;-81
2024/02/01 10:50:39;;;;;;;20.63;13.33;;;;;;;;;;5114093;28;20272;-80
2024/02/01 10:53:08;;;;;;;58.00;32.57;;;;;;;;;;5114161;28;20216;-81
2024/02/01 10:55:39;;;;;;;51.73;30.60;;;;;;;;;;5114130;28;20235;-81
2024/02/01 10:58:12;;;;;;;41.93;27.17;;;;;;;;;;5100582;28;20204;-81
2024/02/01 11:00:41;;;;;;;57.50;36.97;;;;;;;;;;5113739;28;20206;-81
2024/02/01 11:03:09;;;;;;;25.57;16.47;;;;;;;;;;5113471;28;20279;-81
2024/02/01 11:05:37;;;;;;;22.20;15.83;;;;;;;;;;5113846;28;20272;-81
2024/02/01 11:08:04;;;;;;;20.87;13.97;;;;;;;;;;5108360;28;20220;-81
2024/02/01 11:10:31;;;;;;;16.63;12.93;;;;;;;;;;5093599;28;20205;-82
2024/02/01 11:13:00;;;;;;;19.97;12.33;;;;;;;;;;5112830;28;20199;-80
2024/02/01 11:15:31;;;;;;;16.53;12.53;;;;;;;;;;5113464;28;20253;-81
2024/02/01 11:18:09;;;;;;;19.17;14.00;;;;;;;;;;5093317;28;20662;-81
2024/02/01 11:20:36;;;;;;;16.43;12.63;;;;;;;;;;5108653;28;20235;-81
2024/02/01 11:23:05;;;;;;;80.17;37.87;;;;;;;;;;5113519;28;20195;-81
2024/02/01 11:25:34;;;;;;;19.10;13.60;;;;;;;;;;5099869;28;20203;-84
2024/02/01 11:28:02;;;;;;;20.27;14.23;;;;;;;;;;5113475;28;20299;-80
2024/02/01 11:30:33;;;;;;;16.03;9.67;;;;;;;;;;5109675;28;20714;-81
2024/02/01 11:33:00;;;;;;;16.70;11.87;;;;;;;;;;5104313;28;20287;-81
2024/02/01 11:35:27;;;;;;;14.57;10.80;;;;;;;;;;5113145;28;20196;-80
2024/02/01 11:38:00;;;;;;;16.07;10.43;;;;;;;;;;5101497;28;20216;-81
2024/02/01 11:40:27;;;;;;;15.30;10.77;;;;;;;;;;5112217;28;20594;-81
2024/02/01 11:42:58;;;;;;;11.73;10.00;;;;;;;;;;5113127;28;20218;-81
2024/02/01 11:45:25;;;;;;;14.00;11.73;;;;;;;;;;5106301;28;20204;-81
2024/02/01 11:47:53;;;;;;;11.13;8.97;;;;;;;;;;5107001;28;20199;-81
2024/02/01 11:50:23;;;;;;;13.00;9.30;;;;;;;;;;5112764;28;20669;-81
2024/02/01 11:53:00;;;;;;;16.67;12.37;;;;;;;;;;5099375;28;20261;-82
2024/02/01 11:55:29;;;;;;;17.03;11.30;;;;;;;;;;5112625;28;20226;-81
2024/02/01 11:57:57;;;;;;;21.20;15.37;;;;;;;;;;5112787;28;20747;-81
2024/02/01 12:00:24;;;;;;;18.10;10.37;;;;;;;;;;5112534;28;20211;-81
2024/02/01 12:02:53;;;;;;;10.40;8.73;;;;;;;;;;5108339;28;20258;-81
2024/02/01 12:05:20;;;;;;;10.83;7.23;;;;;;;;;;5103178;28;20207;-81
2024/02/01 12:07:48;;;;;;;12.13;7.80;;;;;;;;;;5112050;28;20211;-81
2024/02/01 12:10:16;;;;;;;9.90;7.13;;;;;;;;;;5112591;28;20285;-81
2024/02/01 12:12:45;;;;;;;11.83;8.13;;;;;;;;;;5112673;28;20223;-81
2024/02/01 12:15:12;;;;;;;9.37;7.67;;;;;;;;;;5112363;28;20231;-80
2024/02/01 12:17:42;;;;;;;9.70;7.93;;;;;;;;;;5112425;28;20673;-81
2024/02/01 12:20:13;;;;;;;11.77;8.17;;;;;;;;;;5112334;28;20203;-80
2024/02/01 12:22:40;;;;;;;14.30;9.73;;;;;;;;;;5093087;28;20208;-81
2024/02/01 12:25:12;;;;;;;8.93;7.33;;;;;;;;;;5104617;28;20207;-81
2024/02/01 12:27:40;;;;;;;12.53;8.43;;;;;;;;;;5098720;28;20211;-81
2024/02/01 12:30:11;;;;;;;12.23;8.83;;;;;;;;;;5111775;28;20659;-81
2024/02/01 12:32:43;;;;;;;11.50;9.53;;;;;;;;;;5099800;28;20200;-81
2024/02/01 12:35:14;;;;;;;9.27;7.47;;;;;;;;;;5109643;28;20220;-81
2024/02/01 12:37:42;;;;;;;7.70;6.00;;;;;;;;;;5101539;28;20203;-81
2024/02/01 12:40:10;;;;;;;7.90;7.07;;;;;;;;;;5111651;28;20195;-80
2024/02/01 12:42:38;;;;;;;8.47;7.23;;;;;;;;;;5111578;28;20206;-81
2024/02/01 12:45:06;;;;;;;11.03;9.10;;;;;;;;;;5111487;28;20195;-81
2024/02/01 12:47:37;;;;;;;8.83;7.10;;;;;;;;;;5111823;28;20206;-80
2024/02/01 12:50:06;;;;;;;8.30;5.80;;;;;;;;;;5111278;28;20234;-86
2024/02/01 12:52:34;;;;;;;7.80;6.43;;;;;;;;;;5112319;28;20555;-80
2024/02/01 12:55:01;;;;;;;9.67;5.47;;;;;;;;;;5111490;28;20199;-80
2024/02/01 12:57:28;;;;;;;7.40;6.57;;;;;;;;;;5111146;28;20597;-81
2024/02/01 12:59:58;;;;;;;9.57;5.93;;;;;;;;;;5111443;28;20192;-81
2024/02/01 13:02:25;;;;;;;9.00;6.43;;;;;;;;;;5111982;28;20254;-81
2024/02/01 13:04:52;;;;;;;7.77;6.90;;;;;;;;;;5098192;28;20294;-81
2024/02/01 13:07:19;;;;;;;8.07;5.70;;;;;;;;;;5111224;28;20238;-83
2024/02/01 13:09:48;;;;;;;9.70;5.73;;;;;;;;;;5104492;28;20311;-80
2024/02/01 13:12:22;;;;;;;9.67;6.80;;;;;;;;;;5091171;28;20597;-81
2024/02/01 13:14:57;;;;;;;7.17;5.97;;;;;;;;;;5099464;28;20238;-81
2024/02/01 13:17:34;;;;;;;16.00;11.70;;;;;;;;;;5108578;28;20243;-81
2024/02/01 13:20:02;;;;;;;7.93;6.77;;;;;;;;;;5102550;28;20579;-80
2024/02/01 13:22:31;;;;;;;9.70;7.57;;;;;;;;;;5106384;28;20219;-81
2024/02/01 13:25:02;;;;;;;9.57;7.33;;;;;;;;;;5102465;28;20207;-81
2024/02/01 13:27:29;;;;;;;12.83;7.07;;;;;;;;;;5111442;28;20199;-81
2024/02/01 13:29:55;;;;;;;8.00;7.17;;;;;;;;;;5099085;28;20275;-81
2024/02/01 13:32:22;;;;;;;11.37;8.23;;;;;;;;;;5110119;28;20211;-80
2024/02/01 13:34:49;;;;;;;7.83;6.43;;;;;;;;;;5098876;28;20253;-81
2024/02/01 13:37:16;;;;;;;7.80;6.40;;;;;;;;;;5112704;28;20204;-81
2024/02/01 13:39:44;;;;;;;11.77;8.67;;;;;;;;;;5115221;28;20206;-81
2024/02/01 13:42:12;;;;;;;11.33;8.03;;;;;;;;;;5115547;28;20679;-81
2024/02/01 13:44:39;;;;;;;13.23;8.30;;;;;;;;;;5115148;28;20195;-85
2024/02/01 13:47:06;;;;;;;7.87;6.33;;;;;;;;;;5102349;28;20612;-81
2024/02/01 13:49:33;;;;;;;7.97;6.83;;;;;;;;;;5115191;28;20223;-81
2024/02/01 13:52:02;;;;;;;10.30;5.83;;;;;;;;;;5102284;28;20388;-81
2024/02/01 13:54:29;;;;;;;28.57;13.70;;;;;;;;;;5114264;28;20207;-81
2024/02/01 13:56:59;;;;;;;37.90;22.97;;;;;;;;;;5102905;28;20212;-81
2024/02/01 13:59:28;;;;;;;13.40;8.60;;;;;;;;;;5115197;28;20204;-81
2024/02/01 14:01:54;;;;;;;23.43;16.00;;;;;;;;;;5106282;28;20291;-81
2024/02/01 14:04:21;;;;;;;22.67;14.90;;;;;;;;;;5110510;28;20210;-80
2024/02/01 14:06:48;;;;;;;22.57;14.97;;;;;;;;;;5105780;28;20216;-81
2024/02/01 14:09:15;;;;;;;12.73;9.77;;;;;;;;;;5110658;28;20231;-81
2024/02/01 14:11:42;;;;;;;18.27;12.00;;;;;;;;;;5114961;28;20188;-81
2024/02/01 14:14:09;;;;;;;19.70;12.50;;;;;;;;;;5114655;28;20701;-81
2024/02/01 14:16:38;;;;;;;24.57;17.17;;;;;;;;;;5114694;28;20210;-85
2024/02/01 14:19:05;;;;;;;18.37;12.73;;;;;;;;;;5115016;28;20290;-81
2024/02/01 14:21:32;;;;;;;15.53;10.53;;;;;;;;;;5114903;28;20208;-81
2024/02/01 14:24:01;;;;;;;19.90;13.70;;;;;;;;;;5101142;28;20219;-81
2024/02/01 14:26:27;;;;;;;18.30;16.13;;;;;;;;;;5114590;28;20205;-81
2024/02/01 14:28:56;;;;;;;14.87;9.93;;;;;;;;;;5114412;28;20219;-81
2024/02/01 14:31:23;;;;;;;9.20;8.10;;;;;;;;;;5112819;28;20249;-81
2024/02/01 14:33:52;;;;;;;18.57;13.07;;;;;;;;;;5113170;28;20195;-81
2024/02/01 14:36:19;;;;;;;13.83;10.93;;;;;;;;;;5101085;28;20698;-82
2024/02/01 14:38:46;;;;;;;98.17;51.60;;;;;;;;;;5098323;28;20207;-81
2024/02/01 14:41:13;;;;;;;47.20;32.60;;;;;;;;;;5113449;28;20310;-81
2024/02/01 14:43:40;;;;;;;17.20;14.27;;;;;;;;;;5099621;28;20742;-82
2024/02/01 14:46:07;;;;;;;33.47;28.13;;;;;;;;;;5100373;28;20755;-86
2024/02/01 14:48:34;;;;;;;53.23;40.40;;;;;;;;;;5111553;28;20670;-80
2024/02/01 14:51:02;;;;;;;18.50;16.03;;;;;;;;;;5113098;28;20564;-81
2024/02/01 14:53:29;;;;;;;12.40;10.50;;;;;;;;;;5099195;28;20199;-81
2024/02/01 14:55:56;;;;;;;20.37;15.20;;;;;;;;;;5112828;28;20211;-81
2024/02/01 14:58:23;;;;;;;13.23;11.20;;;;;;;;;;5099231;28;20290;-81
2024/02/01 15:00:50;;;;;;;21.70;17.00;;;;;;;;;;5112538;28;20739;-82
2024/02/01 15:03:18;;;;;;;19.50;16.63;;;;;;;;;;5112702;28;20203;-82
2024/02/01 15:05:45;;;;;;;43.30;27.47;;;;;;;;;;5112366;28;20306;-81
2024/02/01 15:08:13;;;;;;;109.37;57.33;;;;;;;;;;5100124;28;20195;-82
2024/02/01 15:10:40;;;;;;;36.90;24.17;;;;;;;;;;5112560;28;20644;-82
2024/02/01 15:13:09;;;;;;;19.97;14.53;;;;;;;;;;5112937;28;20617;-82
2024/02/01 15:15:37;;;;;;;18.17;15.80;;;;;;;;;;5112252;28;20199;-81
2024/02/01 15:18:04;;;;;;;19.13;13.90;;;;;;;;;;5103917;28;20287;-82
2024/02/01 15:20:34;;;;;;;11.40;8.27;;;;;;;;;;5107995;28;20207;-82
2024/02/01 15:23:03;;;;;;;9.37;7.90;;;;;;;;;;5112496;28;20670;-81